sensor_id;sensor_type;location;lat;lon;timestamp;P1;durP1;ratioP1;P2;durP2;ratioP2
17636;SDS011;8937;51.236;6.794;2023-02-10T00:01:02;14.93;;;9.03;;
17636;SDS011;8937;51.236;6.794;2023-02-10T00:09:24;13.83;;;8.30;;
17636;SDS011;8937;51.236;6.794;2023-02-10T00:17:46;18.13;;;9.70;;
17636;SDS011;8937;51.236;6.794;2023-02-10T00:26:09;15.27;;;9.17;;
17636;SDS011;8937;51.236;6.794;2023-02-10T00:34:33;13.70;;;8.73;;
17636;SDS011;8937;51.236;6.794;2023-02-10T00:42:56;15.67;;;9.07;;
17636;SDS011;8937;51.236;6.794;2023-02-10T00:51:20;13.90;;;9.27;;
17636;SDS011;8937;51.236;6.794;2023-02-10T00:59:41;14.07;;;8.43;;
17636;SDS011;8937;51.236;6.794;2023-02-10T01:08:04;15.17;;;8.30;;
17636;SDS011;8937;51.236;6.794;2023-02-10T01:16:25;15.00;;;9.07;;
17636;SDS011;8937;51.236;6.794;2023-02-10T01:24:48;12.50;;;8.03;;
17636;SDS011;8937;51.236;6.794;2023-02-10T01:33:09;14.70;;;8.63;;
17636;SDS011;8937;51.236;6.794;2023-02-10T01:41:32;16.87;;;9.67;;
17636;SDS011;8937;51.236;6.794;2023-02-10T01:49:53;15.67;;;8.77;;
17636;SDS011;8937;51.236;6.794;2023-02-10T01:58:17;14.33;;;9.20;;
17636;SDS011;8937;51.236;6.794;2023-02-10T02:06:39;16.10;;;9.07;;
17636;SDS011;8937;51.236;6.794;2023-02-10T02:15:06;14.87;;;9.00;;
17636;SDS011;8937;51.236;6.794;2023-02-10T02:23:36;14.70;;;8.63;;
17636;SDS011;8937;51.236;6.794;2023-02-10T02:32:06;15.70;;;9.03;;
17636;SDS011;8937;51.236;6.794;2023-02-10T02:40:30;14.73;;;9.10;;
17636;SDS011;8937;51.236;6.794;2023-02-10T02:48:56;16.90;;;8.40;;
17636;SDS011;8937;51.236;6.794;2023-02-10T02:57:19;14.73;;;9.67;;
17636;SDS011;8937;51.236;6.794;2023-02-10T03:05:44;16.53;;;10.33;;
17636;SDS011;8937;51.236;6.794;2023-02-10T03:14:06;17.83;;;10.53;;
17636;SDS011;8937;51.236;6.794;2023-02-10T03:22:28;17.87;;;11.07;;
17636;SDS011;8937;51.236;6.794;2023-02-10T03:30:50;18.73;;;10.70;;
17636;SDS011;8937;51.236;6.794;2023-02-10T03:39:14;17.10;;;10.17;;
17636;SDS011;8937;51.236;6.794;2023-02-10T03:47:35;15.33;;;9.13;;
17636;SDS011;8937;51.236;6.794;2023-02-10T03:55:58;16.90;;;8.70;;
17636;SDS011;8937;51.236;6.794;2023-02-10T04:04:19;16.37;;;8.67;;
17636;SDS011;8937;51.236;6.794;2023-02-10T04:12:42;14.57;;;8.73;;
17636;SDS011;8937;51.236;6.794;2023-02-10T04:21:04;14.97;;;8.47;;
17636;SDS011;8937;51.236;6.794;2023-02-10T04:29:27;14.10;;;8.63;;
17636;SDS011;8937;51.236;6.794;2023-02-10T04:37:48;19.87;;;9.33;;
17636;SDS011;8937;51.236;6.794;2023-02-10T04:46:11;16.00;;;8.37;;
17636;SDS011;8937;51.236;6.794;2023-02-10T04:54:33;14.47;;;8.63;;
17636;SDS011;8937;51.236;6.794;2023-02-10T05:02:56;15.07;;;8.00;;
17636;SDS011;8937;51.236;6.794;2023-02-10T05:11:18;14.60;;;8.17;;
17636;SDS011;8937;51.236;6.794;2023-02-10T05:19:40;16.27;;;9.20;;
17636;SDS011;8937;51.236;6.794;2023-02-10T05:28:02;17.60;;;8.97;;
17636;SDS011;8937;51.236;6.794;2023-02-10T05:36:24;16.07;;;8.47;;
17636;SDS011;8937;51.236;6.794;2023-02-10T05:44:46;17.43;;;9.40;;
17636;SDS011;8937;51.236;6.794;2023-02-10T05:53:08;20.63;;;10.00;;
17636;SDS011;8937;51.236;6.794;2023-02-10T06:01:30;14.73;;;8.13;;
17636;SDS011;8937;51.236;6.794;2023-02-10T06:09:53;14.67;;;8.17;;
17636;SDS011;8937;51.236;6.794;2023-02-10T06:18:14;13.97;;;8.30;;
17636;SDS011;8937;51.236;6.794;2023-02-10T06:26:37;15.40;;;8.87;;
17636;SDS011;8937;51.236;6.794;2023-02-10T06:34:58;14.90;;;8.30;;
17636;SDS011;8937;51.236;6.794;2023-02-10T06:43:21;17.87;;;8.33;;
17636;SDS011;8937;51.236;6.794;2023-02-10T06:51:43;12.27;;;8.20;;
17636;SDS011;8937;51.236;6.794;2023-02-10T07:00:07;13.87;;;7.80;;
17636;SDS011;8937;51.236;6.794;2023-02-10T07:08:29;16.20;;;9.00;;
17636;SDS011;8937;51.236;6.794;2023-02-10T07:16:53;13.70;;;8.10;;
17636;SDS011;8937;51.236;6.794;2023-02-10T07:25:15;13.83;;;8.27;;
17636;SDS011;8937;51.236;6.794;2023-02-10T07:33:38;13.33;;;8.57;;
17636;SDS011;8937;51.236;6.794;2023-02-10T07:42:00;15.67;;;8.73;;
17636;SDS011;8937;51.236;6.794;2023-02-10T07:50:23;15.10;;;8.33;;
17636;SDS011;8937;51.236;6.794;2023-02-10T07:58:44;14.20;;;8.40;;
17636;SDS011;8937;51.236;6.794;2023-02-10T08:07:07;12.67;;;8.07;;
17636;SDS011;8937;51.236;6.794;2023-02-10T08:15:29;18.40;;;9.63;;
17636;SDS011;8937;51.236;6.794;2023-02-10T08:23:53;16.17;;;9.13;;
17636;SDS011;8937;51.236;6.794;2023-02-10T08:32:17;13.93;;;8.60;;
17636;SDS011;8937;51.236;6.794;2023-02-10T08:40:40;14.90;;;8.33;;
17636;SDS011;8937;51.236;6.794;2023-02-10T08:49:02;15.83;;;9.70;;
17636;SDS011;8937;51.236;6.794;2023-02-10T08:57:24;16.57;;;9.63;;
17636;SDS011;8937;51.236;6.794;2023-02-10T09:05:46;16.97;;;9.27;;
17636;SDS011;8937;51.236;6.794;2023-02-10T09:14:10;17.20;;;10.07;;
17636;SDS011;8937;51.236;6.794;2023-02-10T09:22:31;17.37;;;10.33;;
17636;SDS011;8937;51.236;6.794;2023-02-10T09:30:54;16.67;;;9.80;;
17636;SDS011;8937;51.236;6.794;2023-02-10T09:39:15;18.63;;;9.40;;
17636;SDS011;8937;51.236;6.794;2023-02-10T09:47:40;15.27;;;9.90;;
17636;SDS011;8937;51.236;6.794;2023-02-10T09:56:03;16.33;;;10.63;;
17636;SDS011;8937;51.236;6.794;2023-02-10T10:04:26;21.10;;;11.23;;
17636;SDS011;8937;51.236;6.794;2023-02-10T10:12:48;20.00;;;10.93;;
17636;SDS011;8937;51.236;6.794;2023-02-10T10:21:13;20.37;;;10.93;;
17636;SDS011;8937;51.236;6.794;2023-02-10T10:29:38;22.17;;;11.20;;
17636;SDS011;8937;51.236;6.794;2023-02-10T10:38:06;16.47;;;9.73;;
17636;SDS011;8937;51.236;6.794;2023-02-10T10:46:30;17.47;;;9.57;;
17636;SDS011;8937;51.236;6.794;2023-02-10T10:54:53;20.93;;;10.20;;
17636;SDS011;8937;51.236;6.794;2023-02-10T11:03:15;19.97;;;10.40;;
17636;SDS011;8937;51.236;6.794;2023-02-10T11:11:38;20.03;;;11.13;;
17636;SDS011;8937;51.236;6.794;2023-02-10T11:20:02;22.17;;;11.67;;
17636;SDS011;8937;51.236;6.794;2023-02-10T11:28:26;21.00;;;10.00;;
17636;SDS011;8937;51.236;6.794;2023-02-10T11:36:47;16.87;;;10.03;;
17636;SDS011;8937;51.236;6.794;2023-02-10T11:45:16;16.33;;;9.23;;
17636;SDS011;8937;51.236;6.794;2023-02-10T11:53:38;16.60;;;8.50;;
17636;SDS011;8937;51.236;6.794;2023-02-10T12:02:02;15.47;;;8.13;;
17636;SDS011;8937;51.236;6.794;2023-02-10T12:10:27;16.37;;;8.57;;
17636;SDS011;8937;51.236;6.794;2023-02-10T12:18:55;16.13;;;8.57;;
17636;SDS011;8937;51.236;6.794;2023-02-10T12:27:19;17.03;;;8.87;;
17636;SDS011;8937;51.236;6.794;2023-02-10T12:35:45;18.30;;;10.47;;
17636;SDS011;8937;51.236;6.794;2023-02-10T12:44:12;19.87;;;9.97;;
17636;SDS011;8937;51.236;6.794;2023-02-10T12:52:38;19.77;;;11.13;;
17636;SDS011;8937;51.236;6.794;2023-02-10T13:01:05;19.93;;;11.17;;
17636;SDS011;8937;51.236;6.794;2023-02-10T13:09:32;18.33;;;10.13;;
17636;SDS011;8937;51.236;6.794;2023-02-10T13:17:56;20.73;;;10.90;;
17636;SDS011;8937;51.236;6.794;2023-02-10T13:35:02;17.17;;;10.73;;
17636;SDS011;8937;51.236;6.794;2023-02-10T13:43:27;20.50;;;11.33;;
17636;SDS011;8937;51.236;6.794;2023-02-10T13:52:04;21.20;;;10.83;;
17636;SDS011;8937;51.236;6.794;2023-02-10T14:00:28;19.87;;;9.77;;
17636;SDS011;8937;51.236;6.794;2023-02-10T14:08:51;12.53;;;8.60;;
17636;SDS011;8937;51.236;6.794;2023-02-10T14:17:22;12.27;;;8.37;;
17636;SDS011;8937;51.236;6.794;2023-02-10T14:25:53;12.27;;;7.77;;
17636;SDS011;8937;51.236;6.794;2023-02-10T14:34:17;9.43;;;7.37;;
17636;SDS011;8937;51.236;6.794;2023-02-10T14:42:40;12.60;;;8.43;;
17636;SDS011;8937;51.236;6.794;2023-02-10T14:51:03;12.37;;;8.07;;
17636;SDS011;8937;51.236;6.794;2023-02-10T14:59:29;11.20;;;8.07;;
17636;SDS011;8937;51.236;6.794;2023-02-10T15:07:51;13.90;;;8.17;;
17636;SDS011;8937;51.236;6.794;2023-02-10T15:16:16;10.40;;;7.90;;
17636;SDS011;8937;51.236;6.794;2023-02-10T15:24:38;10.77;;;7.23;;
17636;SDS011;8937;51.236;6.794;2023-02-10T15:33:01;9.53;;;6.97;;
17636;SDS011;8937;51.236;6.794;2023-02-10T15:41:28;14.10;;;6.97;;
17636;SDS011;8937;51.236;6.794;2023-02-10T15:49:53;13.07;;;7.23;;
17636;SDS011;8937;51.236;6.794;2023-02-10T15:58:16;9.23;;;6.33;;
17636;SDS011;8937;51.236;6.794;2023-02-10T16:06:39;9.60;;;6.23;;
17636;SDS011;8937;51.236;6.794;2023-02-10T16:15:00;8.97;;;5.80;;
17636;SDS011;8937;51.236;6.794;2023-02-10T16:23:23;10.97;;;5.80;;
17636;SDS011;8937;51.236;6.794;2023-02-10T16:31:44;12.00;;;5.40;;
17636;SDS011;8937;51.236;6.794;2023-02-10T16:40:07;8.33;;;5.37;;
17636;SDS011;8937;51.236;6.794;2023-02-10T16:48:29;8.37;;;5.63;;
17636;SDS011;8937;51.236;6.794;2023-02-10T16:56:52;7.67;;;5.63;;
17636;SDS011;8937;51.236;6.794;2023-02-10T17:05:13;10.07;;;6.27;;
17636;SDS011;8937;51.236;6.794;2023-02-10T17:13:36;10.37;;;6.50;;
17636;SDS011;8937;51.236;6.794;2023-02-10T17:21:58;7.80;;;5.23;;
17636;SDS011;8937;51.236;6.794;2023-02-10T17:30:21;6.80;;;5.37;;
17636;SDS011;8937;51.236;6.794;2023-02-10T17:38:43;9.37;;;6.20;;
17636;SDS011;8937;51.236;6.794;2023-02-10T17:47:12;10.37;;;6.40;;
17636;SDS011;8937;51.236;6.794;2023-02-10T17:55:34;10.30;;;6.13;;
17636;SDS011;8937;51.236;6.794;2023-02-10T18:03:57;11.50;;;6.90;;
17636;SDS011;8937;51.236;6.794;2023-02-10T18:12:18;9.33;;;6.73;;
17636;SDS011;8937;51.236;6.794;2023-02-10T18:20:42;14.07;;;8.00;;
17636;SDS011;8937;51.236;6.794;2023-02-10T18:29:04;15.83;;;8.60;;
17636;SDS011;8937;51.236;6.794;2023-02-10T18:37:27;14.07;;;8.23;;
17636;SDS011;8937;51.236;6.794;2023-02-10T18:45:48;16.33;;;8.67;;
17636;SDS011;8937;51.236;6.794;2023-02-10T18:54:11;14.73;;;9.10;;
17636;SDS011;8937;51.236;6.794;2023-02-10T19:02:33;17.87;;;9.73;;
17636;SDS011;8937;51.236;6.794;2023-02-10T19:10:59;18.30;;;9.37;;
17636;SDS011;8937;51.236;6.794;2023-02-10T19:19:20;14.57;;;9.07;;
17636;SDS011;8937;51.236;6.794;2023-02-10T19:27:43;17.33;;;8.97;;
17636;SDS011;8937;51.236;6.794;2023-02-10T19:36:08;15.67;;;8.80;;
17636;SDS011;8937;51.236;6.794;2023-02-10T19:44:31;15.70;;;9.30;;
17636;SDS011;8937;51.236;6.794;2023-02-10T19:52:53;15.93;;;8.83;;
17636;SDS011;8937;51.236;6.794;2023-02-10T20:01:16;17.77;;;9.80;;
17636;SDS011;8937;51.236;6.794;2023-02-10T20:09:39;15.50;;;8.83;;
17636;SDS011;8937;51.236;6.794;2023-02-10T20:18:02;15.57;;;8.77;;
17636;SDS011;8937;51.236;6.794;2023-02-10T20:26:23;16.93;;;8.87;;
17636;SDS011;8937;51.236;6.794;2023-02-10T20:34:46;16.97;;;9.37;;
17636;SDS011;8937;51.236;6.794;2023-02-10T20:43:07;16.23;;;8.97;;
17636;SDS011;8937;51.236;6.794;2023-02-10T20:51:31;23.07;;;9.50;;
17636;SDS011;8937;51.236;6.794;2023-02-10T20:59:53;15.80;;;9.37;;
17636;SDS011;8937;51.236;6.794;2023-02-10T21:08:16;19.77;;;9.83;;
17636;SDS011;8937;51.236;6.794;2023-02-10T21:16:37;15.80;;;9.20;;
17636;SDS011;8937;51.236;6.794;2023-02-10T21:25:00;14.97;;;8.43;;
17636;SDS011;8937;51.236;6.794;2023-02-10T21:33:21;18.37;;;9.97;;
17636;SDS011;8937;51.236;6.794;2023-02-10T21:41:44;16.83;;;9.27;;
17636;SDS011;8937;51.236;6.794;2023-02-10T21:50:08;16.87;;;9.47;;
17636;SDS011;8937;51.236;6.794;2023-02-10T21:58:31;19.40;;;9.83;;
17636;SDS011;8937;51.236;6.794;2023-02-10T22:06:52;15.97;;;9.23;;
17636;SDS011;8937;51.236;6.794;2023-02-10T22:15:15;18.67;;;9.77;;
17636;SDS011;8937;51.236;6.794;2023-02-10T22:23:37;15.40;;;8.90;;
17636;SDS011;8937;51.236;6.794;2023-02-10T22:32:00;13.73;;;8.73;;
17636;SDS011;8937;51.236;6.794;2023-02-10T22:40:23;15.50;;;8.47;;
17636;SDS011;8937;51.236;6.794;2023-02-10T22:48:48;15.10;;;8.90;;
17636;SDS011;8937;51.236;6.794;2023-02-10T22:57:10;14.63;;;8.80;;
17636;SDS011;8937;51.236;6.794;2023-02-10T23:05:33;13.07;;;8.53;;
17636;SDS011;8937;51.236;6.794;2023-02-10T23:13:54;14.80;;;7.77;;
17636;SDS011;8937;51.236;6.794;2023-02-10T23:22:17;11.97;;;8.07;;
17636;SDS011;8937;51.236;6.794;2023-02-10T23:30:39;12.37;;;7.47;;
17636;SDS011;8937;51.236;6.794;2023-02-10T23:39:02;12.93;;;7.93;;
17636;SDS011;8937;51.236;6.794;2023-02-10T23:47:25;14.97;;;7.80;;
17636;SDS011;8937;51.236;6.794;2023-02-10T23:55:47;10.40;;;7.60;;
